Карточка аэропорта UNNT

Внимание!
Информация на этой странице в стадии наполнения.
Если вы не увидели какой-то информации, или заметили неточность - пожалуйста сообщите нам!
Спасибо!
Команда RU-STAFF
Название аэропортаТолмачево
Название аэропорта (англ.)Tolmachevo
Превышение367 ft. (111.9 m.)
Координаты55°0.77999999999989', 82°38.178'
Высота перехода6000ft
Эшелон переходаQNH>=1013hPa:FL70; QNH<1013hPa:FL80; QNH<977hPa:FL90
Коды ответчика5201-5227
Зона ОрВДНовосибирск РПИ (UNNT)
Данные METARUNNT 170900Z 15009MPS CAVOK 12/M01 Q1016 R25/090070 R16/////// NOSIG RMK QFE752/1002
Проноз погоды (TAF)UNNT 170800Z 1709/1809 16008G15MPS 8000 SCT040CB TX14/1709Z TN03/1723Z TEMPO 1709/1715 21007G15MPS -SHRA BKN016CB BECMG 1715/1718 24003G08MPS TEMPO 1806/1809 26008G15MPS
NOTAMshow/hide NOTAM
AWOS   TABLE

Информация о ВПП

ВПП Длина ВПП (м.) Покрытие Курс ВПП Частота ILS
073597Асфальтобетон72110.1
163602Цементобетон161109.7
253597Асфальтобетон252108.5
343602Цементобетон341111.1

Диспетчерские позиции

Позывной Наименование органа УВД Частота
UNNT_APPНовосибирск-Подход127.5
UNNT_DEL Новосибирск-Деливери135.4
UNNT_GNDНовосибирск-Руление121.7
UNNT_R_APPНовосибирск-Круг122.0
UNNT_TWRНовосибирск-Вышка118.5



Спутниковое изображение